Time;durP1;ratioP1;P1;durP2;ratioP2;P2;SDS_P1;SDS_P2;PMS_P1;PMS_P2;Temp;Humidity;BMP_temperature;BMP_pressure;BME280_temperature;BME280_humidity;BME280_pressure;Samples;Min_cycle;Max_cycle;Signal;HPM_P1;HPM_P2
2023/02/17 00:01:14;;;;;;;35.80;19.08;;;;;;;3.02;100.00;93551.56;6230466;23;20441;-79
2023/02/17 00:03:39;;;;;;;34.25;19.25;;;;;;;3.02;100.00;93549.75;6204213;23;20013;-79
2023/02/17 00:06:06;;;;;;;35.67;19.42;;;;;;;3.01;100.00;93553.34;6230578;23;20076;-78
2023/02/17 00:08:32;;;;;;;38.38;18.58;;;;;;;2.96;100.00;93535.09;6230526;23;20040;-79
2023/02/17 00:10:58;;;;;;;37.58;19.40;;;;;;;3.01;100.00;93537.81;6204131;23;20004;-79
2023/02/17 00:13:24;;;;;;;34.65;19.40;;;;;;;3.00;100.00;93546.59;6231230;23;20039;-78
2023/02/17 00:15:50;;;;;;;30.67;17.77;;;;;;;3.02;100.00;93551.56;6204824;23;20003;-78
2023/02/17 00:18:15;;;;;;;33.30;19.88;;;;;;;3.03;100.00;93550.53;6230329;23;20016;-78
2023/02/17 00:20:41;;;;;;;31.60;18.40;;;;;;;3.01;100.00;93558.50;6225730;23;20005;-78
2023/02/17 00:23:06;;;;;;;36.53;18.63;;;;;;;3.01;100.00;93548.16;6225156;23;20035;-78
2023/02/17 00:25:32;;;;;;;37.38;19.30;;;;;;;2.99;100.00;93550.16;6231378;23;20332;-78
2023/02/17 00:27:57;;;;;;;33.38;19.05;;;;;;;2.99;100.00;93550.16;6231556;23;20389;-79
2023/02/17 00:30:23;;;;;;;35.25;18.02;;;;;;;2.95;100.00;93551.63;6204779;23;20015;-79
2023/02/17 00:32:49;;;;;;;33.65;19.27;;;;;;;2.90;100.00;93551.44;6231044;23;20024;-79
2023/02/17 00:35:14;;;;;;;36.13;18.75;;;;;;;2.86;100.00;93547.69;6230153;23;20487;-79
2023/02/17 00:37:44;;;;;;;37.55;18.42;;;;;;;2.85;100.00;93546.13;6204173;23;20036;-78
2023/02/17 00:40:13;;;;;;;33.30;19.02;;;;;;;2.81;100.00;93547.53;6179439;23;20008;-79
2023/02/17 00:42:39;;;;;;;33.83;18.83;;;;;;;2.79;100.00;93545.19;6202788;23;20017;-79
2023/02/17 00:45:05;;;;;;;37.08;19.77;;;;;;;2.77;100.00;93543.78;6204544;23;20031;-79
2023/02/17 00:47:31;;;;;;;37.05;19.95;;;;;;;2.68;100.00;93536.31;6203850;23;20017;-78
2023/02/17 00:49:57;;;;;;;34.95;19.10;;;;;;;2.69;100.00;93539.69;6230361;23;20429;-78
2023/02/17 00:52:25;;;;;;;39.25;21.02;;;;;;;2.69;100.00;93556.00;6155094;23;20017;-79
2023/02/17 00:54:50;;;;;;;38.92;21.52;;;;;;;2.68;100.00;93556.22;6204026;23;20419;-78
2023/02/17 00:57:16;;;;;;;46.42;24.27;;;;;;;2.66;100.00;93556.44;6202283;23;20089;-78
2023/02/17 00:59:41;;;;;;;45.92;22.52;;;;;;;2.66;100.00;93555.63;6227873;23;20008;-77
2023/02/17 01:02:07;;;;;;;42.80;23.00;;;;;;;2.62;100.00;93554.47;6202144;23;20023;-79
2023/02/17 01:04:35;;;;;;;40.55;22.67;;;;;;;2.60;100.00;93554.66;6230390;23;20028;-78
2023/02/17 01:07:00;;;;;;;39.53;21.98;;;;;;;2.61;100.00;93558.03;6204313;23;20024;-78
2023/02/17 01:09:26;;;;;;;46.42;22.92;;;;;;;2.61;100.00;93552.88;6203411;23;20012;-79
2023/02/17 01:11:51;;;;;;;44.90;24.13;;;;;;;2.61;100.00;93555.47;6229465;23;20072;-78
2023/02/17 01:14:17;;;;;;;41.22;22.38;;;;;;;2.59;100.00;93549.69;6230317;23;20091;-79
2023/02/17 01:16:45;;;;;;;48.08;25.20;;;;;;;2.58;100.00;93554.09;6203480;23;20008;-78
2023/02/17 01:19:13;;;;;;;48.92;24.02;;;;;;;2.57;100.00;93554.28;6230375;23;20008;-78
2023/02/17 01:21:39;;;;;;;50.70;24.95;;;;;;;2.55;100.00;93549.34;6204003;23;20015;-78
2023/02/17 01:24:11;;;;;;;53.30;25.95;;;;;;;2.53;100.00;93551.34;6204537;23;20008;-78
2023/02/17 01:26:38;;;;;;;50.78;26.48;;;;;;;2.53;100.00;93548.75;6202701;23;20068;-78
2023/02/17 01:29:05;;;;;;;53.67;26.98;;;;;;;2.53;100.00;93548.75;6179133;23;20060;-78
2023/02/17 01:31:31;;;;;;;55.03;27.10;;;;;;;2.51;100.00;93545.59;6204596;23;20020;-78
2023/02/17 01:33:59;;;;;;;54.88;25.77;;;;;;;2.53;100.00;93547.97;6200260;23;19999;-79
2023/02/17 01:36:24;;;;;;;54.13;25.63;;;;;;;2.49;100.00;93547.59;6203826;23;20009;-79
2023/02/17 01:38:50;;;;;;;52.50;27.27;;;;;;;2.47;100.00;93547.78;6203815;23;20018;-79
2023/02/17 01:41:19;;;;;;;59.42;28.70;;;;;;;2.47;100.00;93545.22;6203631;23;20012;-78
2023/02/17 01:44:03;;;;;;;59.65;28.17;;;;;;;2.45;100.00;93539.47;6229640;23;20050;-78
2023/02/17 01:46:34;;;;;;;57.28;28.13;;;;;;;2.44;100.00;93548.22;6202911;23;20009;-78
2023/02/17 01:49:03;;;;;;;59.65;28.33;;;;;;;2.40;100.00;93538.53;6202611;23;20020;-78
2023/02/17 01:51:34;;;;;;;57.67;27.23;;;;;;;2.37;100.00;93531.19;6230146;23;20000;-78
2023/02/17 01:54:10;;;;;;;56.10;27.30;;;;;;;2.38;100.00;93535.34;6202556;23;20068;-78
2023/02/17 01:56:41;;;;;;;53.25;29.02;;;;;;;2.36;100.00;93530.38;6221617;23;20016;-77
2023/02/17 01:59:15;;;;;;;54.85;28.60;;;;;;;2.37;100.00;93526.81;6228479;23;20016;-78
2023/02/17 02:01:41;;;;;;;60.78;28.92;;;;;;;2.40;100.00;93530.75;6227773;23;20072;-79
2023/02/17 02:04:07;;;;;;;60.75;28.80;;;;;;;2.40;100.00;93528.19;6202486;23;20008;-78
2023/02/17 02:06:35;;;;;;;64.15;29.40;;;;;;;2.39;100.00;93524.81;6229124;23;20008;-79
2023/02/17 02:09:18;;;;;;;63.53;29.20;;;;;;;2.36;100.00;93519.25;6228363;23;20012;-78
2023/02/17 02:11:48;;;;;;;61.03;29.30;;;;;;;2.37;100.00;93526.81;6228084;23;20147;-78
2023/02/17 02:14:16;;;;;;;61.25;30.23;;;;;;;2.36;100.00;93521.84;6228608;23;20019;-78
2023/02/17 02:16:48;;;;;;;62.80;28.63;;;;;;;2.35;100.00;93520.28;6228563;23;20032;-77
2023/02/17 02:19:20;;;;;;;63.58;28.38;;;;;;;2.33;100.00;93520.47;6228924;23;20088;-78
2023/02/17 02:21:57;;;;;;;65.15;30.27;;;;;;;2.35;100.00;93520.28;6228593;23;20043;-79
2023/02/17 02:24:41;;;;;;;62.20;27.75;;;;;;;2.34;100.00;93514.28;6228905;23;20039;-78
2023/02/17 02:27:07;;;;;;;64.05;31.05;;;;;;;2.36;100.00;93517.47;6227799;23;20012;-78
2023/02/17 02:29:57;;;;;;;61.72;30.42;;;;;;;2.34;100.00;93510.94;6227311;23;20518;-78
2023/02/17 02:32:51;;;;;;;65.75;31.45;;;;;;;2.34;100.00;93516.09;6227955;23;20040;-78
2023/02/17 02:35:57;;;;;;;71.28;30.85;;;;;;;2.30;100.00;93508.00;6229299;23;20008;-78
2023/02/17 02:38:36;;;;;;;68.13;30.65;;;;;;;2.30;100.00;93505.41;6180834;23;20017;-78
2023/02/17 02:41:23;;;;;;;63.08;30.58;;;;;;;2.31;100.00;93506.19;6220766;23;20013;-77
2023/02/17 02:43:51;;;;;;;63.63;30.52;;;;;;;2.28;100.00;93497.84;6220883;23;20012;-78
2023/02/17 02:46:16;;;;;;;64.50;29.90;;;;;;;2.29;100.00;93504.59;6220993;23;20016;-77
2023/02/17 02:48:43;;;;;;;64.43;31.08;;;;;;;2.27;100.00;93501.44;6196848;23;20017;-78
2023/02/17 02:51:40;;;;;;;61.35;31.83;;;;;;;2.29;100.00;93496.84;6221225;23;20013;-77
2023/02/17 02:54:44;;;;;;;60.58;30.05;;;;;;;2.27;100.00;93496.28;6217987;23;20020;-76
2023/02/17 02:57:29;;;;;;;64.05;31.20;;;;;;;2.26;100.00;93497.28;6221326;23;20051;-77
2023/02/17 03:00:20;;;;;;;66.50;31.20;;;;;;;2.26;100.00;93502.44;6223781;23;20039;-77
2023/02/17 03:02:54;;;;;;;66.07;30.77;;;;;;;2.23;100.00;93499.47;6226676;23;20212;-78
2023/02/17 03:05:25;;;;;;;64.18;30.08;;;;;;;2.27;100.00;93503.22;6232643;23;20446;-78
2023/02/17 03:08:02;;;;;;;64.72;30.88;;;;;;;2.26;100.00;93502.44;6229697;23;20012;-78
2023/02/17 03:10:28;;;;;;;71.18;31.95;;;;;;;2.24;100.00;93501.84;6230872;23;20012;-78
2023/02/17 03:12:54;;;;;;;64.50;31.15;;;;;;;2.23;100.00;93500.28;6229656;23;20011;-78
2023/02/17 03:15:32;;;;;;;68.55;32.17;;;;;;;2.24;100.00;93495.91;6231401;23;20021;-78
2023/02/17 03:18:01;;;;;;;64.47;32.50;;;;;;;2.21;100.00;93499.69;6230637;23;20020;-79
2023/02/17 03:20:30;;;;;;;68.90;31.58;;;;;;;2.19;100.00;93486.19;6230142;23;20004;-78
2023/02/17 03:22:56;;;;;;;71.95;32.17;;;;;;;2.23;100.00;93489.94;6232268;23;20171;-78
2023/02/17 03:25:23;;;;;;;69.32;32.30;;;;;;;2.24;100.00;93498.47;6230924;23;20035;-78
2023/02/17 03:27:48;;;;;;;66.65;30.98;;;;;;;2.22;100.00;93487.56;6230243;23;20512;-78
2023/02/17 03:30:14;;;;;;;72.57;31.42;;;;;;;2.23;100.00;93495.13;6230424;23;20007;-78
2023/02/17 03:32:40;;;;;;;65.25;31.90;;;;;;;2.21;100.00;93497.13;6231685;23;20029;-79
2023/02/17 03:35:06;;;;;;;72.28;32.53;;;;;;;2.20;100.00;93495.50;6231319;23;20001;-78
2023/02/17 03:37:32;;;;;;;65.55;30.30;;;;;;;2.20;100.00;93492.94;6231165;23;20073;-79
2023/02/17 03:39:58;;;;;;;64.75;31.58;;;;;;;2.15;100.00;93492.78;6229647;23;20004;-77
2023/02/17 03:42:23;;;;;;;65.25;30.45;;;;;;;2.15;100.00;93489.41;6230235;23;20012;-78
2023/02/17 03:44:49;;;;;;;71.38;31.75;;;;;;;2.15;100.00;93497.94;6230073;23;20000;-77
2023/02/17 03:47:15;;;;;;;72.30;31.67;;;;;;;2.14;100.00;93501.53;6204540;23;20024;-78
2023/02/17 03:49:40;;;;;;;65.78;30.38;;;;;;;2.12;100.00;93492.41;6231341;23;20020;-77
2023/02/17 03:52:06;;;;;;;67.40;31.63;;;;;;;2.13;100.00;93502.53;6231051;23;20013;-78
2023/02/17 03:54:31;;;;;;;71.93;32.25;;;;;;;2.09;100.00;93503.94;6231559;23;20004;-78
2023/02/17 03:56:58;;;;;;;63.15;29.88;;;;;;;2.04;100.00;93506.38;6231415;23;20019;-78
2023/02/17 03:59:24;;;;;;;68.22;29.10;;;;;;;1.97;100.00;93503.81;6230730;23;20017;-78
2023/02/17 04:01:49;;;;;;;61.65;29.92;;;;;;;1.98;100.00;93507.19;6180380;23;20476;-79
2023/02/17 04:04:15;;;;;;;63.78;28.88;;;;;;;1.95;100.00;93502.44;6204567;23;20008;-78
2023/02/17 04:06:41;;;;;;;61.30;29.70;;;;;;;1.99;100.00;93516.53;6203936;23;20021;-78
2023/02/17 04:09:06;;;;;;;62.65;28.05;;;;;;;2.00;100.00;93512.94;6231326;23;20015;-77
2023/02/17 04:11:32;;;;;;;74.63;30.15;;;;;;;2.00;100.00;93512.94;6230359;23;20019;-78
2023/02/17 04:13:57;;;;;;;63.65;28.70;;;;;;;1.98;100.00;93514.94;6205138;23;20008;-76
2023/02/17 04:16:23;;;;;;;67.35;31.10;;;;;;;1.97;100.00;93508.19;6204042;23;20012;-79
2023/02/17 04:18:48;;;;;;;55.65;28.05;;;;;;;1.97;100.00;93521.09;6203657;23;20055;-78
2023/02/17 04:21:14;;;;;;;56.92;27.83;;;;;;;1.98;100.00;93512.34;6229832;23;20016;-78
2023/02/17 04:23:40;;;;;;;60.10;28.58;;;;;;;1.93;100.00;93510.41;6199935;23;20067;-78
2023/02/17 04:26:07;;;;;;;63.83;28.48;;;;;;;1.95;100.00;93523.91;6225895;23;20067;-77
2023/02/17 04:28:33;;;;;;;57.08;27.15;;;;;;;1.93;100.00;93520.72;6229394;23;20001;-79
2023/02/17 04:30:59;;;;;;;54.30;26.77;;;;;;;1.90;100.00;93515.97;6230891;23;20028;-80
2023/02/17 04:33:25;;;;;;;59.33;27.13;;;;;;;1.94;100.00;93518.94;6230178;23;20004;-78
2023/02/17 04:35:58;;;;;;;57.67;26.85;;;;;;;1.92;100.00;93523.53;6180138;23;20488;-78
2023/02/17 04:38:33;;;;;;;55.42;25.48;;;;;;;1.90;100.00;93525.53;6229121;23;20024;-79
2023/02/17 04:40:59;;;;;;;58.33;27.13;;;;;;;1.88;100.00;93521.34;6230536;23;20352;-78
2023/02/17 04:43:27;;;;;;;59.03;28.05;;;;;;;1.90;100.00;93523.72;6205168;23;20000;-79
2023/02/17 04:45:53;;;;;;;66.75;29.02;;;;;;;1.91;100.00;93524.50;6203644;23;20346;-78
2023/02/17 04:48:19;;;;;;;59.70;28.77;;;;;;;1.94;100.00;93521.53;6204736;23;20024;-79
2023/02/17 04:50:44;;;;;;;63.67;28.70;;;;;;;1.93;100.00;93519.94;6230965;23;20009;-78
2023/02/17 04:53:10;;;;;;;61.80;28.90;;;;;;;1.96;100.00;93529.84;6229614;23;20008;-78
2023/02/17 04:55:36;;;;;;;58.97;29.50;;;;;;;1.95;100.00;93523.91;6229759;23;20023;-78
2023/02/17 04:58:02;;;;;;;66.18;30.48;;;;;;;1.94;100.00;93526.69;6230153;23;20009;-79
2023/02/17 05:00:27;;;;;;;65.97;31.67;;;;;;;1.95;100.00;93523.09;6203753;23;20021;-78
2023/02/17 05:02:53;;;;;;;68.10;32.22;;;;;;;1.94;100.00;93522.31;6229613;23;20004;-79
2023/02/17 05:05:19;;;;;;;68.13;31.70;;;;;;;1.97;100.00;93521.91;6230175;23;20017;-79
2023/02/17 05:07:45;;;;;;;62.90;29.88;;;;;;;1.98;100.00;93522.69;6204365;23;20013;-77
2023/02/17 05:10:15;;;;;;;65.45;31.58;;;;;;;1.99;100.00;93519.91;6229918;23;20026;-79
2023/02/17 05:12:40;;;;;;;63.25;31.20;;;;;;;1.99;100.00;93525.06;6230894;23;20008;-79
2023/02/17 05:15:07;;;;;;;63.63;29.30;;;;;;;2.00;100.00;93523.28;6203886;23;20023;-78
2023/02/17 05:17:33;;;;;;;63.85;30.27;;;;;;;1.98;100.00;93530.44;6204511;23;20000;-78
2023/02/17 05:19:59;;;;;;;62.55;29.70;;;;;;;1.93;100.00;93517.34;6179181;23;20020;-79
2023/02/17 05:22:25;;;;;;;63.22;30.70;;;;;;;1.93;100.00;93520.72;6230325;23;20000;-78
2023/02/17 05:24:50;;;;;;;66.72;31.48;;;;;;;1.93;100.00;93519.94;6202680;23;20019;-78
2023/02/17 05:27:16;;;;;;;63.58;31.35;;;;;;;1.91;100.00;93514.19;6204186;23;20008;-78
2023/02/17 05:29:42;;;;;;;65.97;31.27;;;;;;;1.93;100.00;93514.78;6204356;23;20052;-78
2023/02/17 05:32:07;;;;;;;69.68;32.25;;;;;;;1.95;100.00;93520.53;6205532;23;20001;-79
2023/02/17 05:34:33;;;;;;;63.10;31.13;;;;;;;1.95;100.00;93523.09;6231444;23;20040;-79
2023/02/17 05:36:58;;;;;;;64.65;31.05;;;;;;;1.94;100.00;93511.22;6230588;23;20056;-79
2023/02/17 05:39:25;;;;;;;61.28;31.10;;;;;;;1.92;100.00;93514.00;6230462;23;20019;-79
2023/02/17 05:41:51;;;;;;;69.32;31.05;;;;;;;1.92;100.00;93515.78;6229909;23;20005;-77
2023/02/17 05:44:16;;;;;;;58.72;30.50;;;;;;;1.87;100.00;93512.03;6203042;23;20036;-79
2023/02/17 05:46:42;;;;;;;60.58;29.10;;;;;;;1.86;100.00;93509.66;6204048;23;20005;-78
2023/02/17 05:49:08;;;;;;;75.93;31.67;;;;;;;1.85;100.00;93524.34;6199513;23;20027;-80
2023/02/17 05:51:34;;;;;;;66.05;31.63;;;;;;;1.80;100.00;93510.47;6168811;23;20035;-78
2023/02/17 05:53:59;;;;;;;62.95;29.73;;;;;;;1.86;100.00;93525.13;6215971;23;20094;-78
2023/02/17 05:56:25;;;;;;;64.45;29.60;;;;;;;1.87;100.00;93516.41;6181234;23;20020;-81
2023/02/17 05:58:50;;;;;;;57.50;29.23;;;;;;;1.88;100.00;93518.75;6215357;23;20465;-82
2023/02/17 06:01:16;;;;;;;61.78;30.30;;;;;;;1.88;100.00;93518.75;6215709;23;20043;-80
2023/02/17 06:03:41;;;;;;;69.95;31.98;;;;;;;1.90;100.00;93520.38;6192854;23;20088;-79
2023/02/17 06:06:07;;;;;;;72.40;31.45;;;;;;;1.92;100.00;93515.78;6215160;23;20087;-81
2023/02/17 06:08:34;;;;;;;65.20;29.95;;;;;;;1.87;100.00;93517.19;6217034;23;20023;-80
2023/02/17 06:10:59;;;;;;;67.57;31.60;;;;;;;1.91;100.00;93522.72;6215004;23;20432;-80
2023/02/17 06:13:25;;;;;;;62.67;30.40;;;;;;;1.91;100.00;93527.09;6215720;23;20070;-80
2023/02/17 06:15:50;;;;;;;71.90;30.80;;;;;;;1.92;100.00;93518.38;6217795;23;20015;-80
2023/02/17 06:18:16;;;;;;;61.17;30.88;;;;;;;1.92;100.00;93526.13;6220826;23;20017;-82
2023/02/17 06:20:42;;;;;;;66.38;30.55;;;;;;;1.97;100.00;93526.28;6223655;23;20000;-79
2023/02/17 06:23:07;;;;;;;63.88;31.00;;;;;;;1.96;100.00;93532.44;6222156;23;20396;-81
2023/02/17 06:25:33;;;;;;;70.72;30.13;;;;;;;1.97;100.00;93524.47;6224021;23;20043;-79
2023/02/17 06:28:00;;;;;;;64.65;30.98;;;;;;;2.01;100.00;93532.63;6225004;23;20023;-79
2023/02/17 06:30:26;;;;;;;67.68;31.65;;;;;;;2.01;100.00;93523.06;6226805;23;20011;-79
2023/02/17 06:32:52;;;;;;;69.80;31.27;;;;;;;2.12;100.00;93529.38;6221605;23;20012;-77
2023/02/17 06:35:17;;;;;;;63.42;30.90;;;;;;;2.17;100.00;93536.50;6225473;23;20028;-79
2023/02/17 06:37:44;;;;;;;71.65;33.42;;;;;;;2.23;100.00;93526.13;6225993;23;20009;-79
2023/02/17 06:40:10;;;;;;;63.30;31.27;;;;;;;2.37;100.00;93533.78;6223473;23;20000;-79
2023/02/17 06:42:36;;;;;;;61.78;30.15;;;;;;;2.41;100.00;93542.69;6224368;23;20047;-78
2023/02/17 06:45:04;;;;;;;67.20;31.13;;;;;;;2.45;100.00;93543.84;6225899;23;20000;-79
2023/02/17 06:47:33;;;;;;;59.22;28.77;;;;;;;2.50;100.00;93541.44;6227383;23;20012;-79
2023/02/17 06:49:58;;;;;;;63.47;29.35;;;;;;;2.77;100.00;93541.22;6226981;23;20027;-79
2023/02/17 06:52:24;;;;;;;58.05;28.73;;;;;;;3.19;100.00;93541.44;6225770;23;20012;-79
2023/02/17 06:54:50;;;;;;;57.78;27.67;;;;;;;3.17;100.00;93541.63;6224455;23;20031;-79
2023/02/17 06:57:16;;;;;;;53.63;27.42;;;;;;;3.27;100.00;93546.34;6198717;23;20016;-79
2023/02/17 06:59:41;;;;;;;55.75;27.17;;;;;;;3.80;100.00;93545.72;6226892;23;20040;-79
2023/02/17 07:02:11;;;;;;;49.15;26.15;;;;;;;3.99;100.00;93543.13;6225973;23;20017;-79
2023/02/17 07:04:37;;;;;;;49.17;25.50;;;;;;;3.99;100.00;93545.72;6201508;23;20000;-79
2023/02/17 07:07:03;;;;;;;49.35;25.20;;;;;;;4.38;100.00;93552.16;6201151;23;20036;-80
2023/02/17 07:09:29;;;;;;;52.50;26.80;;;;;;;5.26;100.00;93560.16;6200219;23;20001;-78
2023/02/17 07:11:56;;;;;;;55.45;28.20;;;;;;;5.55;100.00;93551.41;6226761;23;20087;-80
2023/02/17 07:14:22;;;;;;;51.03;28.02;;;;;;;5.70;100.00;93557.97;6227525;23;20009;-79
2023/02/17 07:16:48;;;;;;;51.67;26.95;;;;;;;5.84;100.00;93560.06;6201060;23;20092;-78
2023/02/17 07:19:14;;;;;;;52.85;27.77;;;;;;;6.37;100.00;93565.19;6199204;23;20016;-79
2023/02/17 07:21:39;;;;;;;52.67;27.38;;;;;;;7.26;100.00;93569.75;6226342;23;20016;-80
2023/02/17 07:24:06;;;;;;;51.88;28.05;;;;;;;8.15;100.00;93563.59;6227003;23;20005;-80
2023/02/17 07:26:35;;;;;;;50.30;27.83;;;;;;;9.13;94.61;93563.44;6225613;23;20009;-79
2023/02/17 07:29:00;;;;;;;48.00;27.25;;;;;;;9.64;86.69;93570.06;6227127;23;20000;-79
2023/02/17 07:31:26;;;;;;;49.88;27.67;;;;;;;9.61;85.18;93566.09;6225554;23;20028;-80
2023/02/17 07:33:51;;;;;;;48.08;27.02;;;;;;;9.23;85.46;93575.00;6226086;23;20005;-81
2023/02/17 07:36:17;;;;;;;48.95;27.55;;;;;;;8.91;87.14;93573.97;6199686;23;20057;-81
2023/02/17 07:38:43;;;;;;;47.75;27.60;;;;;;;9.10;85.75;93578.84;6199686;23;20007;-80
2023/02/17 07:41:15;;;;;;;45.88;26.20;;;;;;;9.57;85.37;93575.50;6225580;23;20020;-80
2023/02/17 07:43:41;;;;;;;46.88;26.98;;;;;;;9.87;84.43;93571.47;6225584;23;20012;-80
2023/02/17 07:46:08;;;;;;;47.17;26.63;;;;;;;9.92;81.80;93576.72;6202071;23;20004;-80
2023/02/17 07:48:34;;;;;;;48.55;28.00;;;;;;;9.55;83.46;93577.59;6227546;23;20040;-80
2023/02/17 07:51:09;;;;;;;48.17;26.90;;;;;;;10.06;83.24;93587.50;6226978;23;20031;-80
2023/02/17 07:53:35;;;;;;;53.55;27.25;;;;;;;11.20;80.10;93590.13;6227362;23;20055;-80
2023/02/17 07:56:09;;;;;;;52.65;28.27;;;;;;;12.13;73.56;93581.06;6226745;23;20352;-81
2023/02/17 07:58:37;;;;;;;47.88;26.70;;;;;;;12.56;69.00;93584.00;6226487;23;20489;-80
2023/02/17 08:01:17;;;;;;;45.25;26.10;;;;;;;13.10;66.54;93588.41;6227431;23;20083;-78
2023/02/17 08:03:43;;;;;;;43.92;25.30;;;;;;;14.22;60.30;93595.53;6226724;23;20020;-79
2023/02/17 08:06:17;;;;;;;41.50;24.67;;;;;;;14.21;57.48;93593.97;6226745;23;20638;-79
2023/02/17 08:14:12;;;;;;;44.00;26.23;;;;;;;13.03;58.19;93587.13;6226555;23;20024;-80
2023/02/17 08:16:38;;;;;;;44.00;24.48;;;;;;;12.64;60.40;93601.06;6199904;23;19996;-80
2023/02/17 08:19:03;;;;;;;41.53;25.25;;;;;;;12.34;61.95;93596.72;6226754;23;20044;-79
2023/02/17 08:21:29;;;;;;;41.75;23.95;;;;;;;12.29;60.66;93594.91;6199333;23;20036;-78
2023/02/17 08:23:55;;;;;;;46.78;25.60;;;;;;;11.60;62.04;93599.03;6225408;23;20012;-78
2023/02/17 08:26:21;;;;;;;46.15;23.83;;;;;;;12.07;61.12;93597.88;6223095;23;20445;-79
2023/02/17 08:28:48;;;;;;;42.00;26.00;;;;;;;11.79;61.49;93600.00;6197704;23;20028;-79
2023/02/17 08:31:28;;;;;;;40.35;24.60;;;;;;;11.57;62.72;93597.72;6226403;23;20001;-78
2023/02/17 08:33:54;;;;;;;47.53;25.15;;;;;;;11.10;63.94;93597.97;6199939;23;20024;-78
2023/02/17 08:36:24;;;;;;;44.60;24.33;;;;;;;11.43;62.39;93594.03;6227012;23;19996;-78
2023/02/17 08:38:54;;;;;;;41.58;22.67;;;;;;;11.39;63.01;93593.81;6225642;23;20012;-79
2023/02/17 08:41:22;;;;;;;45.13;24.92;;;;;;;11.85;63.21;93591.09;6197963;23;20040;-78
2023/02/17 08:43:48;;;;;;;44.75;24.08;;;;;;;11.94;60.86;93601.06;6222626;23;19996;-82
2023/02/17 08:46:14;;;;;;;39.85;23.02;;;;;;;11.90;61.44;93607.91;6223286;23;20258;-79
2023/02/17 08:48:41;;;;;;;47.83;24.92;;;;;;;10.99;62.51;93600.59;6223003;23;20020;-79
2023/02/17 08:51:07;;;;;;;39.15;22.38;;;;;;;11.01;63.93;93598.50;6222839;23;20013;-80
2023/02/17 08:53:33;;;;;;;44.78;24.35;;;;;;;10.47;64.20;93596.34;6196232;23;20007;-80
2023/02/17 08:55:58;;;;;;;29.55;17.05;;;;;;;10.87;63.25;93600.06;6205876;23;20498;-79
2023/02/17 08:58:24;;;;;;;42.28;24.13;;;;;;;10.63;64.77;93603.16;6221457;23;20013;-80
2023/02/17 09:00:50;;;;;;;42.55;24.63;;;;;;;10.61;65.16;93602.63;6223269;23;20016;-79
2023/02/17 09:03:15;;;;;;;43.35;24.65;;;;;;;10.83;63.49;93601.66;6223910;23;20346;-80
2023/02/17 09:05:41;;;;;;;42.72;22.98;;;;;;;11.24;63.22;93599.06;6224882;23;20024;-79
2023/02/17 09:08:06;;;;;;;33.50;19.17;;;;;;;11.19;62.35;93605.06;6222941;23;20035;-79
2023/02/17 09:10:32;;;;;;;43.15;24.42;;;;;;;11.41;64.16;93602.16;6197718;23;20012;-78
2023/02/17 09:12:57;;;;;;;40.15;23.85;;;;;;;11.20;62.84;93611.88;6224774;23;20007;-80
2023/02/17 09:15:23;;;;;;;36.53;21.67;;;;;;;10.95;61.80;93607.41;6223718;23;20508;-81
2023/02/17 09:17:49;;;;;;;27.20;14.82;;;;;;;11.31;61.99;93606.66;6224630;23;20413;-81
2023/02/17 09:20:14;;;;;;;40.58;23.65;;;;;;;11.36;60.61;93612.66;6225923;23;20088;-80
2023/02/17 09:22:40;;;;;;;38.85;22.13;;;;;;;11.35;61.57;93608.47;6224840;23;20103;-80
2023/02/17 09:25:07;;;;;;;39.80;22.48;;;;;;;11.21;61.62;93607.41;6223123;23;20024;-80
2023/02/17 09:27:33;;;;;;;38.92;23.98;;;;;;;10.79;62.18;93606.59;6223187;23;20096;-80
2023/02/17 09:29:59;;;;;;;42.78;23.90;;;;;;;10.57;64.05;93608.66;6224847;23;20095;-80
2023/02/17 09:32:25;;;;;;;39.88;22.77;;;;;;;11.39;62.22;93609.53;6226524;23;20048;-80
2023/02/17 09:34:51;;;;;;;40.88;22.80;;;;;;;11.40;61.45;93613.72;6226187;23;20016;-79
2023/02/17 09:37:17;;;;;;;40.08;23.40;;;;;;;11.06;61.96;93604.81;6225238;23;19993;-79
2023/02/17 09:39:44;;;;;;;38.38;20.25;;;;;;;11.20;61.34;93613.72;6223388;23;20012;-80
2023/02/17 09:42:39;;;;;;;39.17;22.13;;;;;;;11.39;61.30;93619.22;6196951;23;20000;-80
2023/02/17 09:45:09;;;;;;;36.50;21.23;;;;;;;11.45;60.22;93626.03;6222008;23;20012;-79
2023/02/17 09:47:42;;;;;;;40.20;20.92;;;;;;;11.70;60.86;93624.44;6223166;23;20009;-80
2023/02/17 09:50:15;;;;;;;40.65;23.35;;;;;;;12.01;58.88;93625.19;6224282;23;20008;-78
2023/02/17 09:53:02;;;;;;;40.17;24.77;;;;;;;11.52;59.53;93628.38;6224542;23;20012;-79
2023/02/17 09:55:33;;;;;;;37.85;21.88;;;;;;;11.36;60.10;93632.84;6223449;23;20013;-81
2023/02/17 09:58:05;;;;;;;44.95;23.65;;;;;;;11.79;59.70;93634.13;6224183;23;20027;-79
2023/02/17 10:00:40;;;;;;;39.13;21.75;;;;;;;12.08;58.39;93630.94;6225455;23;20028;-80
2023/02/17 10:03:19;;;;;;;40.33;22.80;;;;;;;12.68;56.20;93634.38;6225202;23;20008;-79
2023/02/17 10:06:01;;;;;;;41.42;24.10;;;;;;;12.62;56.79;93643.34;6224077;23;20008;-80
2023/02/17 10:08:30;;;;;;;;;;;;;;;12.36;57.33;93642.69;6223401;23;20423;-80
2023/02/17 10:11:33;;;;;;;40.25;21.58;;;;;;;11.92;58.93;93639.91;6222983;23;19908;-80
2023/02/17 10:14:04;;;;;;;;;;;;;;;11.27;60.71;93637.06;6127961;23;20019;-79
2023/02/17 10:16:37;;;;;;;43.50;23.95;;;;;;;10.71;62.74;93643.00;6223566;23;19919;-80
2023/02/17 10:19:34;;;;;;;;;;;;;;;10.44;64.44;93643.94;6223619;23;20044;-80
2023/02/17 10:22:17;;;;;;;39.90;24.80;;;;;;;10.92;63.04;93644.63;6115858;23;20098;-80
2023/02/17 10:24:42;;;;;;;39.80;24.17;;;;;;;11.12;62.72;93648.28;6223591;23;20013;-79
2023/02/17 10:27:23;;;;;;;38.08;22.98;;;;;;;11.22;61.86;93645.69;6224214;23;20035;-80
2023/02/17 10:30:06;;;;;;;39.38;17.48;;;;;;;11.39;61.32;93643.63;6197111;23;20436;-80
2023/02/17 10:32:45;;;;;;;48.65;25.10;;;;;;;11.42;60.63;93634.44;6196170;23;20039;-79
2023/02/17 10:35:13;;;;;;;37.47;22.42;;;;;;;11.67;61.35;93647.53;6224892;23;20008;-80
2023/02/17 10:38:14;;;;;;;50.35;26.23;;;;;;;11.33;60.54;93641.25;6225330;23;19993;-79
2023/02/17 10:40:41;;;;;;;40.45;24.13;;;;;;;11.16;61.29;93642.28;6220383;23;20016;-80
2023/02/17 10:43:09;;;;;;;39.88;22.30;;;;;;;11.57;61.54;93639.69;6198894;23;20038;-79
2023/02/17 10:45:40;;;;;;;34.80;18.35;;;;;;;11.84;59.71;93638.56;6224806;23;20031;-80
2023/02/17 10:48:11;;;;;;;42.20;24.20;;;;;;;11.94;58.56;93645.69;6224820;23;20032;-80
2023/02/17 10:50:41;;;;;;;22.02;13.43;;;;;;;12.11;58.18;93634.88;6197475;23;20333;-79
2023/02/17 10:53:18;;;;;;;38.97;21.88;;;;;;;11.65;59.30;93633.09;6225396;23;20012;-79
2023/02/17 10:56:16;;;;;;;41.42;20.05;;;;;;;11.71;59.37;93631.25;6221345;23;20016;-78
2023/02/17 10:58:44;;;;;;;39.03;19.02;;;;;;;11.58;59.02;93630.75;6224191;23;20035;-80
2023/02/17 11:01:10;;;;;;;24.33;15.45;;;;;;;11.34;60.45;93633.09;6197907;23;20323;-80
2023/02/17 11:03:39;;;;;;;43.20;22.10;;;;;;;11.47;60.93;93621.31;6225722;23;20015;-78
2023/02/17 11:06:25;;;;;;;25.83;15.27;;;;;;;11.49;60.81;93615.81;6225612;23;20016;-80
2023/02/17 11:08:57;;;;;;;33.65;19.77;;;;;;;11.88;60.22;93623.91;6199280;23;20352;-80
2023/02/17 11:11:29;;;;;;;41.55;24.90;;;;;;;12.01;60.38;93610.22;6226073;23;20078;-80
2023/02/17 11:14:07;;;;;;;21.90;13.05;;;;;;;12.46;57.84;93615.59;6199026;23;20063;-79
2023/02/17 11:16:36;;;;;;;42.88;23.55;;;;;;;12.27;58.01;93603.06;6197901;23;20018;-79
2023/02/17 11:19:06;;;;;;;32.08;17.38;;;;;;;12.16;58.65;93601.53;6226640;23;20005;-79
2023/02/17 11:21:32;;;;;;;39.25;23.75;;;;;;;12.19;59.25;93590.47;6227059;23;20084;-79
2023/02/17 11:24:00;;;;;;;41.45;23.88;;;;;;;12.58;58.09;93597.66;6228464;23;20020;-80
2023/02/17 11:26:29;;;;;;;40.50;24.23;;;;;;;12.24;58.56;93600.19;6201959;23;20015;-79
2023/02/17 11:29:06;;;;;;;38.67;23.63;;;;;;;12.32;59.11;93586.50;6226856;23;20004;-81
2023/02/17 11:31:32;;;;;;;38.25;22.60;;;;;;;12.49;57.96;93588.78;6229106;23;20036;-80
2023/02/17 11:33:58;;;;;;;36.15;23.13;;;;;;;12.62;58.78;93582.16;6227429;23;20001;-81